createdAt,value
2017-09-24T00:00:14.370Z,85.15
2017-09-24T00:00:54.858Z,85.34
2017-09-24T00:01:35.406Z,85.63
2017-09-24T00:02:15.996Z,85.05
2017-09-24T00:02:56.530Z,84.86
2017-09-24T00:03:37.095Z,85.05
2017-09-24T00:04:17.612Z,84.67
2017-09-24T00:04:58.204Z,84.86
2017-09-24T00:05:38.745Z,84.86
2017-09-24T00:06:19.302Z,84.95
2017-09-24T00:06:59.865Z,85.05
2017-09-24T00:07:40.510Z,85.15
2017-09-24T00:08:21.166Z,85.05
2017-09-24T00:09:01.723Z,85.34
2017-09-24T00:09:42.272Z,85.15
2017-09-24T00:10:22.818Z,85.53
2017-09-24T00:11:03.274Z,86.01
2017-09-24T00:11:43.825Z,85.58
2017-09-24T00:12:24.402Z,85.44
2017-09-24T00:13:04.924Z,85.63
2017-09-24T00:13:45.550Z,85.44
2017-09-24T00:14:26.095Z,85.25
2017-09-24T00:15:06.645Z,85.25
2017-09-24T00:15:47.244Z,84.86
2017-09-24T00:16:27.739Z,84.77
2017-09-24T00:17:08.284Z,84.77
2017-09-24T00:17:48.839Z,84.67
2017-09-24T00:18:29.357Z,84.86
2017-09-24T00:19:09.926Z,84.95
2017-09-24T00:19:50.815Z,85.25
2017-09-24T00:20:31.372Z,85.25
2017-09-24T00:21:11.906Z,85.39
2017-09-24T00:21:52.456Z,85.3
2017-09-24T00:22:33.029Z,85.49
2017-09-24T00:23:13.558Z,85.49
2017-09-24T00:23:54.045Z,85.58
2017-09-24T00:24:34.591Z,85.78
2017-09-24T00:25:15.114Z,85.78
2017-09-24T00:25:55.690Z,85.88
2017-09-24T00:26:36.245Z,86.07
2017-09-24T00:27:16.803Z,85.78
2017-09-24T00:27:57.308Z,86.11
2017-09-24T00:28:37.849Z,85.97
2017-09-24T00:29:18.380Z,85.72
2017-09-24T00:29:58.938Z,85.72
2017-09-24T00:30:39.468Z,85.25
2017-09-24T00:31:20.001Z,85.72
2017-09-24T00:32:00.565Z,85.34
2017-09-24T00:32:41.030Z,85.53
2017-09-24T00:33:21.643Z,85.15
2017-09-24T00:34:02.229Z,85.3
2017-09-24T00:34:42.760Z,85.39
2017-09-24T00:35:23.297Z,85.68
2017-09-24T00:36:03.827Z,85.58
2017-09-24T00:36:44.394Z,85.49
2017-09-24T00:37:24.912Z,85.58
2017-09-24T00:38:05.476Z,85.58
2017-09-24T00:38:45.989Z,85.88
2017-09-24T00:39:26.518Z,85.88
2017-09-24T00:40:07.142Z,85.78
2017-09-24T00:40:47.714Z,85.88
2017-09-24T00:41:28.228Z,85.88
2017-09-24T00:42:08.786Z,85.68
2017-09-24T00:42:49.320Z,86.07
2017-09-24T00:43:29.829Z,85.39
2017-09-24T00:44:10.374Z,85.39
2017-09-24T00:44:50.922Z,85.58
2017-09-24T00:45:31.467Z,85.58
2017-09-24T00:46:12.009Z,85.58
2017-09-24T00:46:52.550Z,85.39
2017-09-24T00:47:33.126Z,85.21
2017-09-24T00:48:13.631Z,85.21
2017-09-24T00:48:54.208Z,85.15
2017-09-24T00:49:34.761Z,85.11
2017-09-24T00:50:15.314Z,85.3
2017-09-24T00:50:55.886Z,85.21
2017-09-24T00:51:36.374Z,85.49
2017-09-24T00:52:17.025Z,85.11
2017-09-24T00:52:57.581Z,85.3
2017-09-24T00:53:38.098Z,85.78
2017-09-24T00:54:18.615Z,85.68
2017-09-24T00:54:59.133Z,85.3
2017-09-24T00:55:39.698Z,85.68
2017-09-24T00:56:20.215Z,85.3
2017-09-24T00:57:00.783Z,85.21
2017-09-24T00:57:41.306Z,85.78
2017-09-24T00:58:21.850Z,85.39
2017-09-24T00:59:02.402Z,85.39
2017-09-24T00:59:42.892Z,85.78
2017-09-24T01:00:23.446Z,85.21
2017-09-24T01:01:03.974Z,85.49
2017-09-24T01:01:44.531Z,85.97
2017-09-24T01:02:25.109Z,85.11
2017-09-24T01:03:05.711Z,85.39
2017-09-24T01:03:46.274Z,85.21
2017-09-24T01:04:26.720Z,85.49
2017-09-24T01:05:07.270Z,85.49
2017-09-24T01:05:47.776Z,85.3
2017-09-24T01:06:28.286Z,85.97
2017-09-24T01:07:08.830Z,85.78
2017-09-24T01:07:49.405Z,86.07
2017-09-24T01:08:29.907Z,85.97
2017-09-24T01:09:10.600Z,86.35
2017-09-24T01:09:51.142Z,85.68
2017-09-24T01:10:31.702Z,85.97
2017-09-24T01:11:12.283Z,85.97
2017-09-24T01:11:52.800Z,85.88
2017-09-24T01:12:33.365Z,85.97
2017-09-24T01:13:13.997Z,86.07
2017-09-24T01:13:54.519Z,86.16
2017-09-24T01:14:35.096Z,86.16
2017-09-24T01:15:15.666Z,85.78
2017-09-24T01:15:56.221Z,85.3
2017-09-24T01:16:36.682Z,85.21
2017-09-24T01:17:17.183Z,85.39
2017-09-24T01:17:57.850Z,84.82
2017-09-24T01:18:38.404Z,85.3
2017-09-24T01:19:18.953Z,84.44
2017-09-24T01:19:59.499Z,84.82
2017-09-24T01:20:40.002Z,84.34
2017-09-24T01:21:20.588Z,85.01
2017-09-24T01:22:01.124Z,84.63
2017-09-24T01:22:41.714Z,84.72
2017-09-24T01:23:22.255Z,84.63
2017-09-24T01:24:02.788Z,84.44
2017-09-24T01:24:43.305Z,84.53
2017-09-24T01:25:23.827Z,84.63
2017-09-24T01:26:04.371Z,84.53
2017-09-24T01:26:44.974Z,84.44
2017-09-24T01:27:25.571Z,84.44
2017-09-24T01:28:06.052Z,84.63
2017-09-24T01:28:46.715Z,84.63
2017-09-24T01:29:27.380Z,84.63
2017-09-24T01:30:07.921Z,84.63
2017-09-24T01:30:48.472Z,84.44
2017-09-24T01:31:29.048Z,84.34
2017-09-24T01:32:09.600Z,84.82
2017-09-24T01:32:50.137Z,84.53
2017-09-24T01:33:30.653Z,84.91
2017-09-24T01:34:11.224Z,85.01
2017-09-24T01:34:51.799Z,84.72
2017-09-24T01:35:32.341Z,85.3
2017-09-24T01:36:12.883Z,84.25
2017-09-24T01:36:53.394Z,84.25
2017-09-24T01:37:33.968Z,84.34
2017-09-24T01:38:14.479Z,84.53
2017-09-24T01:38:54.981Z,84.63
2017-09-24T01:39:35.602Z,84.34
2017-09-24T01:40:16.131Z,84.78
2017-09-24T01:40:56.745Z,85.25
2017-09-24T01:41:37.270Z,85.16
2017-09-24T01:42:17.940Z,85.64
2017-09-24T01:42:58.606Z,85.25
2017-09-24T01:43:39.273Z,85.16
2017-09-24T01:44:19.699Z,85.45
2017-09-24T01:45:00.344Z,85.45
2017-09-24T01:45:41.123Z,85.25
2017-09-24T01:46:21.631Z,84.82
2017-09-24T01:47:02.166Z,84.58
2017-09-24T01:47:42.668Z,85.25
2017-09-24T01:48:23.236Z,84.88
2017-09-24T01:49:03.724Z,84.88
2017-09-24T01:49:44.293Z,84.68
2017-09-24T01:50:24.898Z,84.88
2017-09-24T01:51:05.467Z,85.25
2017-09-24T01:51:46.067Z,85.25
2017-09-24T01:52:26.642Z,84.68
2017-09-24T01:53:07.200Z,84.88
2017-09-24T01:53:47.735Z,84.78
2017-09-24T01:54:28.256Z,84.68
2017-09-24T01:55:08.832Z,85.35
2017-09-24T01:55:49.386Z,84.39
2017-09-24T01:56:30.013Z,84.05
2017-09-24T01:57:10.551Z,84.05
2017-09-24T01:57:51.154Z,84.34
2017-09-24T01:58:31.687Z,84.44
2017-09-24T01:59:12.214Z,84.63
2017-09-24T01:59:52.819Z,84.44
2017-09-24T02:00:33.337Z,84.72
2017-09-24T02:01:13.872Z,84.15
2017-09-24T02:01:54.410Z,84.3
2017-09-24T02:02:34.932Z,84.63
2017-09-24T02:03:15.481Z,84.01
2017-09-24T02:03:56.018Z,84.39
2017-09-24T02:04:36.597Z,84.78
2017-09-24T02:05:17.225Z,84.2
2017-09-24T02:05:57.848Z,84.68
2017-09-24T02:06:38.369Z,84.78
2017-09-24T02:07:18.890Z,85.16
2017-09-24T02:07:59.505Z,85.06
2017-09-24T02:08:39.998Z,84.68
2017-09-24T02:09:20.496Z,84.68
2017-09-24T02:10:01.059Z,84.39
2017-09-24T02:10:41.580Z,84.2
2017-09-24T02:11:22.086Z,84.49
2017-09-24T02:12:02.681Z,84.3
2017-09-24T02:12:43.249Z,83.92
2017-09-24T02:13:23.809Z,84.68
2017-09-24T02:14:04.336Z,83.86
2017-09-24T02:14:44.922Z,83.76
2017-09-24T02:15:25.398Z,83.29
2017-09-24T02:16:06.030Z,83.86
2017-09-24T02:16:46.635Z,83.29
2017-09-24T02:17:27.197Z,83.82
2017-09-24T02:18:07.712Z,83.58
2017-09-24T02:18:48.276Z,83.92
2017-09-24T02:19:28.827Z,84.11
2017-09-24T02:20:09.461Z,83.82
2017-09-24T02:20:50.078Z,83.92
2017-09-24T02:21:30.566Z,83.86
2017-09-24T02:22:11.047Z,83.92
2017-09-24T02:22:51.589Z,83.82
2017-09-24T02:23:32.124Z,83.63
2017-09-24T02:24:12.683Z,83.82
2017-09-24T02:24:53.193Z,83.82
2017-09-24T02:25:33.746Z,84.01
2017-09-24T02:26:14.328Z,83.53
2017-09-24T02:26:54.886Z,83.92
2017-09-24T02:27:35.372Z,84.01
2017-09-24T02:28:15.897Z,84.11
2017-09-24T02:28:56.441Z,83.25
2017-09-24T02:29:37.026Z,83.72
2017-09-24T02:30:17.578Z,83.82
2017-09-24T02:30:58.082Z,83.53
2017-09-24T02:31:38.822Z,83.63
2017-09-24T02:32:19.364Z,83.82
2017-09-24T02:32:59.951Z,83.82
2017-09-24T02:33:40.501Z,83.97
2017-09-24T02:34:21.068Z,83.87
2017-09-24T02:35:01.586Z,84.55
2017-09-24T02:35:42.137Z,83.78
2017-09-24T02:36:22.674Z,84.35
2017-09-24T02:37:03.242Z,84.16
2017-09-24T02:37:43.801Z,84.55
2017-09-24T02:38:24.320Z,84.35
2017-09-24T02:39:04.976Z,84.35
2017-09-24T02:39:45.510Z,84.45
2017-09-24T02:40:26.016Z,84.39
2017-09-24T02:41:06.592Z,84.55
2017-09-24T02:41:47.163Z,84.06
2017-09-24T02:42:27.685Z,84.49
2017-09-24T02:43:08.240Z,84.26
2017-09-24T02:43:48.768Z,84.35
2017-09-24T02:44:29.297Z,84.26
2017-09-24T02:45:09.851Z,84.3
2017-09-24T02:45:50.402Z,84.16
2017-09-24T02:46:30.986Z,83.68
2017-09-24T02:47:11.536Z,84.35
2017-09-24T02:47:52.105Z,83.97
2017-09-24T02:48:32.529Z,84.78
2017-09-24T02:49:13.059Z,84.74
2017-09-24T02:49:53.632Z,83.97
2017-09-24T02:50:34.171Z,84.16
2017-09-24T02:51:14.695Z,84.55
2017-09-24T02:51:55.532Z,84.06
2017-09-24T02:52:36.239Z,84.16
2017-09-24T02:53:16.796Z,84.06
2017-09-24T02:53:57.287Z,84.35
2017-09-24T02:54:37.792Z,84.92
2017-09-24T02:55:18.356Z,84.64
2017-09-24T02:55:58.886Z,84.64
2017-09-24T02:56:39.390Z,84.64
2017-09-24T02:57:19.934Z,85.41
2017-09-24T02:58:00.496Z,84.16
2017-09-24T02:58:41.018Z,84.35
2017-09-24T02:59:21.576Z,84.45
2017-09-24T03:00:02.097Z,83.97
2017-09-24T03:00:42.676Z,84.16
2017-09-24T03:01:23.184Z,83.97
2017-09-24T03:02:03.745Z,84.35
2017-09-24T03:02:44.276Z,84.45
2017-09-24T03:03:24.821Z,84.74
2017-09-24T03:04:05.338Z,84.64
2017-09-24T03:04:45.904Z,84.83
2017-09-24T03:05:26.436Z,84.55
2017-09-24T03:06:06.979Z,84.64
2017-09-24T03:06:48.253Z,84.83
2017-09-24T03:07:28.932Z,84.83
2017-09-24T03:08:09.631Z,84.64
2017-09-24T03:08:50.167Z,84.74
2017-09-24T03:09:30.715Z,84.83
2017-09-24T03:10:11.282Z,84.74
2017-09-24T03:10:51.761Z,83.97
2017-09-24T03:11:32.390Z,84.92
2017-09-24T03:12:12.898Z,85.02
2017-09-24T03:12:53.431Z,85.21
2017-09-24T03:13:34.036Z,84.45
2017-09-24T03:14:14.568Z,84.74
2017-09-24T03:14:55.131Z,84.55
2017-09-24T03:15:35.668Z,84.16
2017-09-24T03:16:16.177Z,83.97
2017-09-24T03:16:56.765Z,84.35
2017-09-24T03:17:37.294Z,84.35
2017-09-24T03:18:17.853Z,84.55
2017-09-24T03:18:58.381Z,84.45
2017-09-24T03:19:38.951Z,84.16
2017-09-24T03:20:19.571Z,84.55
2017-09-24T03:20:59.976Z,84.55
2017-09-24T03:21:40.546Z,84.35
2017-09-24T03:22:21.125Z,84.26
2017-09-24T03:23:01.614Z,84.92
2017-09-24T03:23:42.269Z,85.41
2017-09-24T03:24:22.780Z,84.16
2017-09-24T03:25:03.449Z,83.97
2017-09-24T03:25:44.097Z,84.35
2017-09-24T03:26:24.748Z,84.35
2017-09-24T03:27:05.240Z,84.26
2017-09-24T03:27:45.790Z,84.64
2017-09-24T03:28:26.428Z,84.26
2017-09-24T03:29:06.906Z,84.16
2017-09-24T03:29:47.511Z,84.06
2017-09-24T03:30:28.077Z,84.35
2017-09-24T03:31:08.534Z,83.97
2017-09-24T03:31:49.068Z,83.68
2017-09-24T03:32:29.670Z,83.97
2017-09-24T03:33:10.258Z,83.87
2017-09-24T03:33:50.828Z,84.06
2017-09-24T03:34:31.343Z,83.78
2017-09-24T03:35:11.913Z,83.78
2017-09-24T03:35:52.617Z,83.68
2017-09-24T03:36:33.128Z,83.97
2017-09-24T03:37:13.664Z,84.35
2017-09-24T03:37:54.157Z,84.35
2017-09-24T03:38:34.711Z,84.35
2017-09-24T03:39:15.327Z,84.55
2017-09-24T03:39:55.831Z,84.26
2017-09-24T03:40:36.421Z,85.02
2017-09-24T03:41:16.986Z,84.55
2017-09-24T03:41:57.539Z,84.45
2017-09-24T03:42:38.088Z,84.55
2017-09-24T03:43:18.655Z,84.35
2017-09-24T03:43:59.199Z,84.45
2017-09-24T03:44:39.985Z,84.35
2017-09-24T03:45:20.468Z,83.97
2017-09-24T03:46:01.025Z,83.87
2017-09-24T03:46:41.606Z,83.87
2017-09-24T03:47:22.103Z,83.2
2017-09-24T03:48:02.608Z,83.59
2017-09-24T03:48:43.172Z,83.87
2017-09-24T03:49:23.706Z,83.78
2017-09-24T03:50:04.401Z,83.01
2017-09-24T03:50:44.954Z,83.3
2017-09-24T03:51:25.520Z,83.3
2017-09-24T03:52:06.051Z,83.68
2017-09-24T03:52:46.640Z,83.3
2017-09-24T03:53:27.140Z,83.78
2017-09-24T03:54:07.691Z,82.92
2017-09-24T03:54:48.220Z,82.92
2017-09-24T03:55:28.805Z,83.78
2017-09-24T03:56:09.443Z,83.39
2017-09-24T03:56:50.248Z,83.39
2017-09-24T03:57:30.820Z,83.78
2017-09-24T03:58:11.306Z,83.39
2017-09-24T03:58:51.803Z,83.59
2017-09-24T03:59:32.370Z,83.78
2017-09-24T04:00:12.869Z,82.82
2017-09-24T04:00:53.410Z,83.49
2017-09-24T04:01:34.011Z,82.92
2017-09-24T04:02:14.559Z,83.11
2017-09-24T04:02:55.176Z,83.78
2017-09-24T04:03:36.340Z,83.87
2017-09-24T04:04:16.305Z,83.39
2017-09-24T04:04:56.898Z,83.49
2017-09-24T04:05:37.400Z,83.39
2017-09-24T04:06:17.942Z,83.68
2017-09-24T04:06:58.453Z,82.92
2017-09-24T04:07:39.027Z,82.92
2017-09-24T04:08:19.538Z,83.01
2017-09-24T04:09:00.036Z,83.01
2017-09-24T04:09:40.639Z,83.06
2017-09-24T04:10:21.229Z,83.2
2017-09-24T04:11:01.741Z,83.2
2017-09-24T04:11:42.310Z,83.3
2017-09-24T04:12:22.841Z,82.92
2017-09-24T04:13:03.389Z,82.92
2017-09-24T04:13:43.880Z,82.92
2017-09-24T04:14:24.389Z,83.11
2017-09-24T04:15:04.949Z,82.78
2017-09-24T04:15:45.468Z,83.11
2017-09-24T04:16:26.018Z,83.39
2017-09-24T04:17:06.548Z,83.78
2017-09-24T04:17:47.046Z,83.26
2017-09-24T04:18:27.600Z,83.45
2017-09-24T04:19:08.129Z,83.78
2017-09-24T04:19:48.727Z,82.97
2017-09-24T04:20:29.260Z,83.3
2017-09-24T04:21:09.779Z,83.49
2017-09-24T04:21:50.335Z,83.01
2017-09-24T04:22:30.836Z,83.16
2017-09-24T04:23:11.886Z,83.73
2017-09-24T04:23:52.644Z,83.54
2017-09-24T04:24:33.205Z,83.39
2017-09-24T04:25:13.671Z,83.64
2017-09-24T04:25:54.362Z,83.64
2017-09-24T04:26:34.942Z,83.36
2017-09-24T04:27:15.474Z,83.36
2017-09-24T04:27:56.059Z,83.26
2017-09-24T04:28:36.630Z,83.36
2017-09-24T04:29:17.137Z,83.3
2017-09-24T04:29:57.653Z,83.06
2017-09-24T04:30:38.245Z,82.97
2017-09-24T04:31:18.790Z,83.36
2017-09-24T04:31:59.308Z,83.01
2017-09-24T04:32:39.856Z,83.54
2017-09-24T04:33:20.372Z,83.59
2017-09-24T04:34:00.909Z,83.16
2017-09-24T04:34:41.425Z,83.16
2017-09-24T04:35:21.936Z,83.26
2017-09-24T04:36:02.472Z,83.93
2017-09-24T04:36:42.993Z,83.83
2017-09-24T04:37:23.566Z,83.06
2017-09-24T04:38:04.071Z,83.64
2017-09-24T04:38:44.592Z,83.16
2017-09-24T04:39:25.097Z,83.39
2017-09-24T04:40:05.622Z,83.06
2017-09-24T04:40:46.170Z,83.06
2017-09-24T04:41:26.671Z,82.92
2017-09-24T04:42:07.264Z,83.11
2017-09-24T04:42:47.825Z,83.01
2017-09-24T04:43:28.335Z,83.49
2017-09-24T04:44:08.868Z,83.2
2017-09-24T04:44:49.424Z,82.63
2017-09-24T04:45:30.005Z,82.78
2017-09-24T04:46:10.523Z,82.87
2017-09-24T04:46:51.044Z,83.01
2017-09-24T04:47:31.618Z,82.3
2017-09-24T04:48:12.181Z,83.16
2017-09-24T04:48:52.735Z,82.3
2017-09-24T04:49:33.240Z,82.87
2017-09-24T04:50:13.749Z,83.36
2017-09-24T04:50:54.270Z,83.06
2017-09-24T04:51:34.823Z,83.06
2017-09-24T04:52:15.402Z,82.87
2017-09-24T04:52:55.912Z,82.87
2017-09-24T04:53:36.438Z,82.4
2017-09-24T04:54:17.005Z,82.49
2017-09-24T04:54:57.489Z,82.68
2017-09-24T04:55:38.007Z,82.87
2017-09-24T04:56:18.556Z,82.87
2017-09-24T04:56:59.130Z,82.68
2017-09-24T04:57:39.656Z,82.87
2017-09-24T04:58:20.159Z,82.87
2017-09-24T04:59:00.698Z,82.87
2017-09-24T04:59:41.200Z,82.4
2017-09-24T05:00:21.705Z,82.73
2017-09-24T05:01:02.265Z,82.24
2017-09-24T05:01:42.789Z,82.2
2017-09-24T05:02:23.574Z,82.11
2017-09-24T05:03:04.133Z,81.82
2017-09-24T05:03:45.035Z,82.2
2017-09-24T05:04:25.509Z,82.01
2017-09-24T05:05:06.079Z,82.3
2017-09-24T05:05:46.642Z,82.3
2017-09-24T05:06:27.176Z,82.4
2017-09-24T05:07:07.694Z,82.97
2017-09-24T05:07:48.221Z,83.45
2017-09-24T05:08:28.741Z,83.06
2017-09-24T05:09:09.328Z,83.16
2017-09-24T05:09:49.863Z,83.06
2017-09-24T05:10:30.379Z,82.87
2017-09-24T05:11:10.890Z,82.87
2017-09-24T05:11:51.437Z,83.06
2017-09-24T05:12:31.991Z,82.87
2017-09-24T05:13:12.490Z,82.87
2017-09-24T05:13:53.003Z,82.97
2017-09-24T05:14:33.530Z,82.97
2017-09-24T05:15:14.067Z,83.16
2017-09-24T05:15:54.599Z,83.06
2017-09-24T05:16:35.141Z,82.3
2017-09-24T05:17:15.690Z,82.3
2017-09-24T05:17:56.250Z,82.53
2017-09-24T05:18:36.836Z,82.4
2017-09-24T05:19:17.400Z,83.06
2017-09-24T05:19:57.941Z,83.39
2017-09-24T05:20:38.479Z,83.45
2017-09-24T05:21:19.015Z,83.36
2017-09-24T05:21:59.581Z,82.87
2017-09-24T05:22:40.046Z,83.2
2017-09-24T05:23:20.588Z,83.26
2017-09-24T05:24:01.134Z,83.3
2017-09-24T05:24:41.690Z,83.3
2017-09-24T05:25:22.194Z,82.59
2017-09-24T05:26:02.757Z,82.53
2017-09-24T05:26:43.295Z,82.87
2017-09-24T05:27:23.842Z,82.4
2017-09-24T05:28:04.382Z,82.78
2017-09-24T05:28:44.891Z,82.53
2017-09-24T05:29:25.479Z,82.4
2017-09-24T05:30:06.021Z,83.36
2017-09-24T05:30:46.592Z,82.11
2017-09-24T05:31:27.159Z,83.36
2017-09-24T05:32:07.653Z,82.82
2017-09-24T05:32:48.170Z,82.2
2017-09-24T05:33:28.713Z,82.49
2017-09-24T05:34:09.248Z,82.59
2017-09-24T05:34:49.765Z,82.11
2017-09-24T05:35:30.355Z,82.2
2017-09-24T05:36:10.850Z,81.82
2017-09-24T05:36:51.386Z,82.3
2017-09-24T05:37:31.899Z,82.4
2017-09-24T05:38:12.494Z,82.59
2017-09-24T05:38:53.012Z,82.49
2017-09-24T05:39:33.519Z,82.59
2017-09-24T05:40:14.068Z,82.3
2017-09-24T05:40:54.611Z,82.3
2017-09-24T05:41:35.144Z,82.4
2017-09-24T05:42:15.697Z,82.4
2017-09-24T05:42:56.226Z,82.49
2017-09-24T05:43:36.830Z,82.34
2017-09-24T05:44:17.350Z,82.3
2017-09-24T05:44:57.860Z,81.63
2017-09-24T05:45:38.429Z,81.54
2017-09-24T05:46:18.918Z,82.3
2017-09-24T05:46:59.477Z,81.63
2017-09-24T05:47:39.965Z,81.82
2017-09-24T05:48:20.473Z,81.82
2017-09-24T05:49:01.032Z,81.73
2017-09-24T05:51:14.580Z,82.49
2017-09-24T05:51:55.128Z,82.4
2017-09-24T05:52:35.707Z,82.4
2017-09-24T05:53:16.231Z,82.2
2017-09-24T05:53:56.779Z,82.4
2017-09-24T05:54:37.281Z,82.59
2017-09-24T05:55:17.806Z,81.92
2017-09-24T05:55:58.389Z,82.4
2017-09-24T05:56:38.915Z,82.49
2017-09-24T05:57:19.444Z,82.4
2017-09-24T05:57:59.990Z,82.3
2017-09-24T05:58:40.490Z,81.82
2017-09-24T05:59:21.112Z,82.3
2017-09-24T06:00:01.622Z,82.3
2017-09-24T06:00:42.145Z,82.3
2017-09-24T06:01:22.629Z,81.73
2017-09-24T06:02:03.144Z,81.92
2017-09-24T06:02:43.688Z,82.4
2017-09-24T06:03:24.214Z,82.49
2017-09-24T06:04:04.799Z,82.78
2017-09-24T06:04:45.342Z,82.49
2017-09-24T06:05:25.903Z,82.4
2017-09-24T06:06:06.412Z,82.97
2017-09-24T06:06:47.053Z,83.45
2017-09-24T06:07:27.617Z,83.54
2017-09-24T06:08:08.143Z,83.36
2017-09-24T06:08:48.693Z,83.54
2017-09-24T06:09:29.240Z,83.73
2017-09-24T06:10:09.718Z,83.26
2017-09-24T06:10:50.264Z,83.36
2017-09-24T06:11:30.774Z,83.73
2017-09-24T06:12:11.315Z,83.36
2017-09-24T06:12:51.836Z,83.06
2017-09-24T06:13:32.434Z,83.45
2017-09-24T06:14:12.929Z,83.26
2017-09-24T06:14:53.474Z,83.45
2017-09-24T06:15:34.007Z,82.87
2017-09-24T06:16:14.555Z,83.16
2017-09-24T06:16:55.110Z,83.06
2017-09-24T06:17:35.668Z,83.06
2017-09-24T06:18:16.207Z,83.11
2017-09-24T06:18:56.751Z,82.97
2017-09-24T06:19:37.350Z,83.2
2017-09-24T06:20:18.176Z,83.36
2017-09-24T06:20:58.661Z,82.11
2017-09-24T06:21:39.265Z,82.53
2017-09-24T06:22:19.748Z,83.11
2017-09-24T06:23:00.291Z,83.39
2017-09-24T06:23:40.851Z,82.92
2017-09-24T06:24:21.365Z,82.82
2017-09-24T06:25:01.901Z,82.43
2017-09-24T06:25:42.424Z,82.92
2017-09-24T06:26:23.024Z,82.43
2017-09-24T06:27:03.489Z,82.43
2017-09-24T06:27:44.028Z,83.01
2017-09-24T06:28:24.574Z,82.97
2017-09-24T06:29:05.101Z,83.36
2017-09-24T06:29:45.638Z,83.39
2017-09-24T06:30:26.175Z,83.39
2017-09-24T06:31:06.719Z,83.11
2017-09-24T06:31:47.317Z,82.92
2017-09-24T06:32:27.824Z,83.11
2017-09-24T06:33:08.343Z,82.73
2017-09-24T06:33:48.888Z,82.24
2017-09-24T06:34:29.435Z,82.43
2017-09-24T06:35:10.033Z,82.63
2017-09-24T06:35:50.545Z,82.06
2017-09-24T06:36:31.049Z,82.15
2017-09-24T06:37:11.595Z,82.34
2017-09-24T06:37:52.144Z,82.34
2017-09-24T06:38:32.631Z,82.15
2017-09-24T06:39:13.199Z,81.86
2017-09-24T06:39:53.733Z,81.67
2017-09-24T06:40:34.252Z,81.86
2017-09-24T06:41:14.833Z,81.86
2017-09-24T06:41:55.383Z,81.29
2017-09-24T06:42:35.918Z,81.96
2017-09-24T06:43:16.464Z,81.86
2017-09-24T06:43:57.020Z,81.96
2017-09-24T06:44:37.566Z,81.86
2017-09-24T06:45:18.102Z,81.96
2017-09-24T06:45:58.679Z,81.77
2017-09-24T06:46:39.329Z,81.77
2017-09-24T06:47:19.849Z,81.48
2017-09-24T06:48:00.432Z,81.52
2017-09-24T06:48:40.902Z,81.2
2017-09-24T06:49:21.442Z,81.86
2017-09-24T06:50:02.000Z,82.06
2017-09-24T06:50:42.536Z,81.43
2017-09-24T06:51:23.098Z,81.43
2017-09-24T06:52:03.716Z,81.23
2017-09-24T06:52:44.197Z,81.13
2017-09-24T06:53:24.767Z,81.71
2017-09-24T06:54:05.285Z,81.62
2017-09-24T06:54:45.849Z,81.04
2017-09-24T06:55:26.367Z,80.85
2017-09-24T06:56:06.863Z,81.04
2017-09-24T06:56:47.439Z,80.66
2017-09-24T06:57:27.957Z,80.66
2017-09-24T06:58:08.497Z,80.56
2017-09-24T06:58:49.061Z,80.18
2017-09-24T06:59:29.582Z,80.12
2017-09-24T07:00:10.185Z,80.37
2017-09-24T07:00:50.636Z,80.18
2017-09-24T07:01:31.185Z,80.27
2017-09-24T07:02:11.761Z,80.37
2017-09-24T07:02:52.288Z,79.8
2017-09-24T07:03:32.818Z,80.18
2017-09-24T07:04:13.434Z,80.08
2017-09-24T07:04:53.989Z,80.37
2017-09-24T07:05:34.514Z,80.08
2017-09-24T07:06:15.078Z,80.08
2017-09-24T07:06:55.644Z,80.08
2017-09-24T07:07:36.173Z,79.7
2017-09-24T07:08:16.682Z,79.7
2017-09-24T07:08:57.232Z,79.13
2017-09-24T07:09:37.769Z,79.8
2017-09-24T07:10:18.292Z,79.7
2017-09-24T07:10:58.812Z,79.6
2017-09-24T07:11:39.331Z,79.22
2017-09-24T07:12:19.874Z,79.36
2017-09-24T07:13:00.419Z,79.32
2017-09-24T07:13:41.002Z,79.32
2017-09-24T07:14:21.513Z,79.36
2017-09-24T07:15:02.002Z,79.36
2017-09-24T07:15:42.547Z,79.45
2017-09-24T07:16:23.050Z,78.49
2017-09-24T07:17:03.636Z,78.69
2017-09-24T07:17:44.154Z,79.55
2017-09-24T07:18:24.720Z,79.36
2017-09-24T07:19:05.246Z,79.74
2017-09-24T07:19:45.730Z,79.45
2017-09-24T07:20:26.320Z,78.78
2017-09-24T07:21:06.849Z,78.4
2017-09-24T07:21:47.395Z,78.59
2017-09-24T07:22:27.931Z,78.88
2017-09-24T07:23:08.522Z,78.69
2017-09-24T07:23:49.045Z,78.88
2017-09-24T07:24:29.570Z,79.07
2017-09-24T07:25:10.106Z,78.49
2017-09-24T07:25:50.597Z,78.49
2017-09-24T07:26:31.146Z,79.51
2017-09-24T07:27:11.687Z,78.59
2017-09-24T07:27:52.236Z,78.78
2017-09-24T07:28:32.869Z,78.88
2017-09-24T07:29:13.377Z,78.69
2017-09-24T07:29:53.966Z,78.49
2017-09-24T07:30:34.497Z,78.78
2017-09-24T07:31:15.004Z,78.49
2017-09-24T07:31:55.603Z,78.49
2017-09-24T07:32:36.102Z,78.49
2017-09-24T07:33:16.632Z,78.4
2017-09-24T07:33:57.194Z,78.49
2017-09-24T07:34:37.728Z,78.69
2017-09-24T07:35:18.338Z,78.3
2017-09-24T07:35:58.826Z,78.2
2017-09-24T07:36:39.390Z,78.4
2017-09-24T07:37:19.943Z,78.4
2017-09-24T07:38:00.466Z,78.3
2017-09-24T07:38:41.021Z,78.25
2017-09-24T07:39:21.509Z,78.15
2017-09-24T07:40:02.106Z,78.44
2017-09-24T07:40:42.620Z,78.25
2017-09-24T07:41:23.156Z,78.53
2017-09-24T07:42:03.739Z,77.76
2017-09-24T07:42:44.263Z,77.95
2017-09-24T07:43:24.806Z,78.25
2017-09-24T07:44:05.345Z,77.86
2017-09-24T07:44:45.874Z,78.25
2017-09-24T07:45:26.404Z,77.95
2017-09-24T07:46:07.014Z,78.05
2017-09-24T07:46:47.598Z,78.34
2017-09-24T07:47:28.092Z,77.86
2017-09-24T07:48:08.682Z,78.34
2017-09-24T07:48:49.251Z,78.53
2017-09-24T07:49:29.795Z,77.76
2017-09-24T07:50:10.407Z,77.76
2017-09-24T07:50:50.889Z,78.34
2017-09-24T07:51:31.433Z,78.25
2017-09-24T07:52:11.958Z,78.25
2017-09-24T07:52:52.549Z,78.82
2017-09-24T07:53:33.024Z,79.49
2017-09-24T07:54:13.565Z,80.26
2017-09-24T07:54:54.131Z,80.6
2017-09-24T07:55:34.642Z,80.83
2017-09-24T07:56:15.160Z,80.74
2017-09-24T07:56:55.715Z,80.64
2017-09-24T07:57:36.262Z,80.74
2017-09-24T07:58:16.826Z,81.37
2017-09-24T07:58:57.338Z,81.41
2017-09-24T07:59:37.903Z,81.51
2017-09-24T08:00:18.495Z,81.7
2017-09-24T08:00:59.004Z,81.41
2017-09-24T08:01:39.505Z,81.51
2017-09-24T08:02:20.086Z,81.41
2017-09-24T08:03:00.628Z,82.18
2017-09-24T08:03:41.182Z,82.18
2017-09-24T08:04:21.747Z,83.19
2017-09-24T08:05:02.898Z,83.48
2017-09-24T08:05:43.481Z,83.76
2017-09-24T08:06:23.963Z,83.76
2017-09-24T08:07:04.551Z,83.86
2017-09-24T08:07:45.086Z,83.76
2017-09-24T08:08:25.608Z,83.67
2017-09-24T08:09:06.247Z,83.58
2017-09-24T08:09:46.787Z,83.23
2017-09-24T08:10:27.349Z,83.23
2017-09-24T08:11:07.897Z,83.04
2017-09-24T08:11:48.456Z,83.04
2017-09-24T08:12:29.053Z,82.56
2017-09-24T08:13:09.613Z,83.23
2017-09-24T08:13:50.154Z,83.61
2017-09-24T08:14:30.671Z,82.37
2017-09-24T08:15:11.215Z,82.46
2017-09-24T08:15:51.766Z,82.75
2017-09-24T08:16:32.296Z,82.65
2017-09-24T08:17:12.838Z,83.52
2017-09-24T08:17:53.398Z,82.56
2017-09-24T08:18:33.940Z,82.75
2017-09-24T08:19:14.560Z,82.75
2017-09-24T08:19:55.083Z,82.46
2017-09-24T08:20:35.659Z,82.85
2017-09-24T08:21:16.185Z,82.56
2017-09-24T08:21:56.721Z,82.46
2017-09-24T08:22:37.252Z,83.61
2017-09-24T08:23:17.879Z,83.14
2017-09-24T08:23:58.372Z,83.71
2017-09-24T08:24:38.942Z,83.23
2017-09-24T08:25:19.515Z,83.23
2017-09-24T08:26:01.154Z,83.71
2017-09-24T08:26:41.712Z,84.09
2017-09-24T08:27:22.286Z,83.81
2017-09-24T08:28:02.840Z,83.33
2017-09-24T08:28:43.404Z,83.61
2017-09-24T08:29:23.970Z,83.85
2017-09-24T08:30:04.485Z,83.23
2017-09-24T08:30:45.023Z,83.91
2017-09-24T08:31:25.635Z,83.81
2017-09-24T08:32:06.180Z,83.71
2017-09-24T08:32:46.674Z,83.18
2017-09-24T08:33:27.260Z,83.75
2017-09-24T08:34:07.750Z,83.81
2017-09-24T08:34:48.393Z,82.75
2017-09-24T08:35:28.930Z,83.23
2017-09-24T08:36:09.439Z,83.91
2017-09-24T08:36:49.997Z,83.52
2017-09-24T08:37:30.682Z,83.23
2017-09-24T08:38:11.234Z,82.94
2017-09-24T08:38:51.745Z,84.09
2017-09-24T08:39:32.283Z,83.52
2017-09-24T08:40:12.850Z,84
2017-09-24T08:40:53.364Z,83.75
2017-09-24T08:41:33.911Z,83.27
2017-09-24T08:42:14.526Z,84.14
2017-09-24T08:42:55.071Z,83.94
2017-09-24T08:43:35.684Z,83.37
2017-09-24T08:44:16.253Z,83.18
2017-09-24T08:44:56.821Z,82.7
2017-09-24T08:45:37.484Z,82.51